Time;durP1;ratioP1;P1;durP2;ratioP2;P2;SDS_P1;SDS_P2;PMS_P1;PMS_P2;Temp;Humidity;BMP_temperature;BMP_pressure;BME280_temperature;BME280_humidity;BME280_pressure;Samples;Min_cycle;Max_cycle;Signal;HPM_P1;HPM_P2
2022/10/16 00:01:12;;;;;;;20.25;14.07;;;;;;;;;;5139888;27;20378;-75
2022/10/16 00:03:59;;;;;;;21.23;13.95;;;;;;;;;;5140262;27;20027;-75
2022/10/16 00:06:44;;;;;;;19.92;14.77;;;;;;;;;;5154288;27;20023;-74
2022/10/16 00:09:30;;;;;;;21.85;13.45;;;;;;;;;;5154462;27;20022;-75
2022/10/16 00:12:16;;;;;;;19.08;12.90;;;;;;;;;;5154980;27;20442;-75
2022/10/16 00:15:01;;;;;;;19.05;13.25;;;;;;;;;;5155821;27;20023;-75
2022/10/16 00:17:47;;;;;;;18.33;12.40;;;;;;;;;;5139446;27;20027;-76
2022/10/16 00:20:36;;;;;;;19.13;12.88;;;;;;;;;;5154737;27;20033;-76
2022/10/16 00:23:22;;;;;;;19.23;12.63;;;;;;;;;;5155355;27;20351;-75
2022/10/16 00:26:09;;;;;;;23.27;13.27;;;;;;;;;;5156109;27;20061;-75
2022/10/16 00:28:54;;;;;;;21.90;12.88;;;;;;;;;;5158384;27;20113;-74
2022/10/16 00:31:40;;;;;;;19.83;12.65;;;;;;;;;;5158796;27;20026;-76
2022/10/16 00:34:26;;;;;;;19.05;12.52;;;;;;;;;;5158648;27;20023;-75
2022/10/16 00:37:11;;;;;;;23.92;12.75;;;;;;;;;;5157686;27;20047;-75
2022/10/16 00:39:57;;;;;;;19.58;12.27;;;;;;;;;;5158540;27;20023;-74
2022/10/16 00:42:43;;;;;;;18.73;12.10;;;;;;;;;;5159104;27;20030;-74
2022/10/16 00:45:28;;;;;;;17.58;11.88;;;;;;;;;;5157888;27;20333;-76
2022/10/16 00:48:14;;;;;;;18.48;12.27;;;;;;;;;;5158574;27;20515;-75
2022/10/16 00:51:00;;;;;;;14.45;11.13;;;;;;;;;;5142920;27;20022;-74
2022/10/16 00:53:46;;;;;;;15.30;11.45;;;;;;;;;;5158057;27;20328;-75
2022/10/16 00:56:31;;;;;;;16.77;11.95;;;;;;;;;;5157242;27;20432;-74
2022/10/16 00:59:28;;;;;;;17.30;11.40;;;;;;;;;;5157700;27;20364;-75
2022/10/16 01:02:14;;;;;;;17.77;12.32;;;;;;;;;;5157360;27;20019;-74
2022/10/16 01:05:00;;;;;;;19.73;12.30;;;;;;;;;;5157892;27;20366;-76
2022/10/16 01:08:04;;;;;;;20.73;13.15;;;;;;;;;;5157197;27;20320;-76
2022/10/16 01:10:57;;;;;;;21.70;12.35;;;;;;;;;;5158254;27;20026;-75
2022/10/16 01:13:46;;;;;;;21.50;13.18;;;;;;;;;;5142461;27;20018;-75
2022/10/16 01:16:40;;;;;;;20.80;13.52;;;;;;;;;;5157198;27;20050;-75
2022/10/16 01:19:46;;;;;;;24.48;13.55;;;;;;;;;;5157566;27;20038;-75
2022/10/16 01:22:48;;;;;;;20.20;13.20;;;;;;;;;;5127976;27;20106;-74
2022/10/16 01:25:49;;;;;;;19.77;12.68;;;;;;;;;;5141919;27;20105;-75
2022/10/16 01:28:38;;;;;;;18.95;11.80;;;;;;;;;;5157109;27;20062;-75
2022/10/16 01:31:25;;;;;;;16.15;12.00;;;;;;;;;;5157198;27;20019;-74
2022/10/16 01:34:14;;;;;;;18.05;11.95;;;;;;;;;;5157139;27;20063;-75
2022/10/16 01:37:02;;;;;;;14.23;10.88;;;;;;;;;;5155575;27;20034;-73
2022/10/16 01:39:50;;;;;;;15.48;11.00;;;;;;;;;;5157525;27;20014;-74
2022/10/16 01:42:37;;;;;;;15.77;11.13;;;;;;;;;;5158179;27;20027;-74
2022/10/16 01:45:22;;;;;;;17.30;11.80;;;;;;;;;;5157282;27;20011;-75
2022/10/16 01:48:11;;;;;;;18.05;10.90;;;;;;;;;;5156713;27;20027;-74
2022/10/16 01:51:00;;;;;;;14.93;10.52;;;;;;;;;;5157285;27;20015;-74
2022/10/16 01:53:48;;;;;;;14.07;9.73;;;;;;;;;;5156796;27;20022;-74
2022/10/16 01:56:34;;;;;;;18.52;10.38;;;;;;;;;;5162352;27;20015;-75
2022/10/16 01:59:21;;;;;;;16.17;10.55;;;;;;;;;;5175044;27;20074;-75
2022/10/16 02:02:07;;;;;;;15.35;10.52;;;;;;;;;;5159162;27;20014;-75
2022/10/16 02:04:57;;;;;;;22.05;11.40;;;;;;;;;;5156906;27;20015;-75
2022/10/16 02:07:43;;;;;;;13.60;10.15;;;;;;;;;;5156356;27;20022;-75
2022/10/16 02:10:30;;;;;;;14.55;10.10;;;;;;;;;;5157205;27;20059;-74
2022/10/16 02:13:26;;;;;;;13.15;9.20;;;;;;;;;;5157237;27;20061;-75
2022/10/16 02:16:13;;;;;;;15.68;9.10;;;;;;;;;;5163490;27;20026;-74
2022/10/16 02:18:58;;;;;;;14.07;9.65;;;;;;;;;;5169631;27;20454;-75
2022/10/16 02:21:46;;;;;;;14.38;8.98;;;;;;;;;;5156756;27;20087;-74
2022/10/16 02:24:40;;;;;;;13.38;9.13;;;;;;;;;;5156215;27;20026;-75
2022/10/16 02:27:26;;;;;;;11.98;9.40;;;;;;;;;;5155844;27;20030;-75
2022/10/16 02:30:12;;;;;;;14.32;9.63;;;;;;;;;;5155796;27;20030;-75
2022/10/16 02:32:59;;;;;;;17.40;9.55;;;;;;;;;;5156405;27;20029;-75
2022/10/16 02:35:47;;;;;;;15.38;9.68;;;;;;;;;;5156179;27;20025;-74
2022/10/16 02:38:33;;;;;;;16.08;9.27;;;;;;;;;;5157157;27;20069;-75
2022/10/16 02:41:20;;;;;;;14.15;9.63;;;;;;;;;;5141502;27;20105;-75
2022/10/16 02:44:05;;;;;;;14.82;9.77;;;;;;;;;;5156197;27;20427;-74
2022/10/16 02:46:51;;;;;;;17.65;9.20;;;;;;;;;;5155651;27;20030;-75
2022/10/16 02:49:37;;;;;;;17.58;10.13;;;;;;;;;;5154891;27;20026;-76
2022/10/16 02:52:22;;;;;;;14.73;10.23;;;;;;;;;;5154845;27;20014;-76
2022/10/16 02:55:08;;;;;;;17.92;10.85;;;;;;;;;;5155270;27;20038;-75
2022/10/16 02:57:53;;;;;;;14.25;10.13;;;;;;;;;;5155767;27;20029;-75
2022/10/16 03:00:39;;;;;;;16.90;10.45;;;;;;;;;;5155639;27;20082;-75
2022/10/16 03:03:25;;;;;;;18.35;11.25;;;;;;;;;;5155292;27;20023;-75
2022/10/16 03:06:10;;;;;;;18.58;11.68;;;;;;;;;;5155487;27;20019;-75
2022/10/16 03:08:56;;;;;;;21.92;12.45;;;;;;;;;;5156047;27;20030;-76
2022/10/16 03:11:41;;;;;;;15.63;12.60;;;;;;;;;;5155998;27;20027;-76
2022/10/16 03:14:27;;;;;;;17.73;12.32;;;;;;;;;;5155850;27;20014;-75
2022/10/16 03:17:13;;;;;;;19.15;12.80;;;;;;;;;;5154361;27;20022;-76
2022/10/16 03:19:58;;;;;;;22.05;13.27;;;;;;;;;;5156141;27;20124;-75
2022/10/16 03:22:44;;;;;;;19.52;13.50;;;;;;;;;;5155267;27;20015;-74
2022/10/16 03:25:29;;;;;;;19.17;13.63;;;;;;;;;;5155410;27;20014;-74
2022/10/16 03:28:15;;;;;;;19.60;14.23;;;;;;;;;;5155002;27;20054;-75
2022/10/16 03:31:00;;;;;;;26.05;15.43;;;;;;;;;;5154480;27;20103;-74
2022/10/16 03:33:46;;;;;;;22.13;14.60;;;;;;;;;;5155473;27;20030;-75
2022/10/16 03:36:32;;;;;;;24.77;15.10;;;;;;;;;;5155448;27;20042;-74
2022/10/16 03:39:17;;;;;;;20.30;14.10;;;;;;;;;;5155344;27;20054;-74
2022/10/16 03:42:03;;;;;;;21.60;14.75;;;;;;;;;;5155441;27;20038;-74
2022/10/16 03:44:48;;;;;;;19.90;13.77;;;;;;;;;;5155148;27;20026;-74
2022/10/16 03:47:34;;;;;;;23.23;13.75;;;;;;;;;;5154984;27;20038;-74
2022/10/16 03:50:20;;;;;;;18.83;13.73;;;;;;;;;;5154566;27;20019;-74
2022/10/16 03:53:05;;;;;;;22.25;14.70;;;;;;;;;;5155115;27;20079;-75
2022/10/16 03:55:51;;;;;;;20.38;13.82;;;;;;;;;;5153977;27;20428;-75
2022/10/16 03:58:36;;;;;;;23.83;14.32;;;;;;;;;;5154649;27;20026;-74
2022/10/16 04:01:22;;;;;;;23.95;12.63;;;;;;;;;;5158093;27;20086;-73
2022/10/16 04:04:07;;;;;;;18.30;12.27;;;;;;;;;;5159552;27;20027;-75
2022/10/16 04:06:53;;;;;;;21.83;13.00;;;;;;;;;;5158757;27;20355;-75
2022/10/16 04:09:39;;;;;;;23.48;13.25;;;;;;;;;;5159782;27;20023;-74
2022/10/16 04:12:25;;;;;;;19.15;12.45;;;;;;;;;;5159614;27;20018;-75
2022/10/16 04:15:10;;;;;;;17.80;11.80;;;;;;;;;;5158924;27;20019;-75
2022/10/16 04:17:56;;;;;;;16.15;11.73;;;;;;;;;;5158890;27;20018;-75
2022/10/16 04:20:41;;;;;;;20.83;12.25;;;;;;;;;;5159178;27;20463;-74
2022/10/16 04:23:27;;;;;;;20.15;12.40;;;;;;;;;;5158480;27;20022;-74
2022/10/16 04:26:13;;;;;;;18.80;11.30;;;;;;;;;;5158166;27;20117;-75
2022/10/16 04:28:58;;;;;;;20.95;11.45;;;;;;;;;;5143656;27;20015;-75
2022/10/16 04:31:44;;;;;;;17.10;11.25;;;;;;;;;;5158824;27;20355;-74
2022/10/16 04:34:29;;;;;;;16.15;11.48;;;;;;;;;;5159259;27;20050;-73
2022/10/16 04:37:15;;;;;;;20.25;11.98;;;;;;;;;;5158435;27;20049;-73
2022/10/16 04:40:00;;;;;;;21.98;11.88;;;;;;;;;;5152653;27;20014;-72
2022/10/16 04:42:46;;;;;;;18.33;11.35;;;;;;;;;;5167250;27;20102;-74
2022/10/16 04:45:32;;;;;;;18.27;12.27;;;;;;;;;;5159554;27;20400;-73
2022/10/16 04:48:18;;;;;;;17.63;11.93;;;;;;;;;;5142686;27;20110;-75
2022/10/16 04:51:03;;;;;;;16.35;11.50;;;;;;;;;;5143751;27;20027;-75
2022/10/16 04:53:49;;;;;;;18.77;11.65;;;;;;;;;;5157839;27;20080;-74
2022/10/16 04:56:40;;;;;;;22.80;13.57;;;;;;;;;;5142597;27;20160;-74
2022/10/16 04:59:25;;;;;;;20.52;13.68;;;;;;;;;;5159630;27;20019;-74
2022/10/16 05:02:11;;;;;;;22.35;14.32;;;;;;;;;;5173840;27;20074;-74
2022/10/16 05:04:56;;;;;;;22.30;14.15;;;;;;;;;;5158502;27;20038;-74
2022/10/16 05:07:42;;;;;;;25.55;13.98;;;;;;;;;;5158281;27;20419;-75
2022/10/16 05:10:27;;;;;;;22.33;14.48;;;;;;;;;;5158482;27;20023;-75
2022/10/16 05:13:13;;;;;;;20.02;13.82;;;;;;;;;;5158088;27;20493;-75
2022/10/16 05:15:59;;;;;;;21.77;13.95;;;;;;;;;;5158041;27;20033;-74
2022/10/16 05:18:44;;;;;;;22.98;14.73;;;;;;;;;;5158319;27;20022;-74
2022/10/16 05:21:30;;;;;;;31.38;16.40;;;;;;;;;;5158144;27;20026;-74
2022/10/16 05:24:16;;;;;;;30.50;16.85;;;;;;;;;;5158339;27;20050;-74
2022/10/16 05:27:01;;;;;;;28.95;17.10;;;;;;;;;;5156954;27;20368;-74
2022/10/16 05:29:47;;;;;;;36.42;19.23;;;;;;;;;;5157905;27;20027;-74
2022/10/16 05:32:33;;;;;;;38.20;20.33;;;;;;;;;;5157167;27;20083;-74
2022/10/16 05:35:19;;;;;;;36.40;20.67;;;;;;;;;;5156986;27;20382;-75
2022/10/16 05:38:05;;;;;;;37.30;20.52;;;;;;;;;;5156459;27;20039;-74
2022/10/16 05:40:52;;;;;;;31.70;19.60;;;;;;;;;;5156849;27;20075;-74
2022/10/16 05:43:37;;;;;;;35.90;20.00;;;;;;;;;;5156245;27;20436;-74
2022/10/16 05:46:23;;;;;;;30.65;17.92;;;;;;;;;;5157477;27;20500;-75
2022/10/16 05:49:09;;;;;;;25.63;16.75;;;;;;;;;;5157462;27;20381;-75
2022/10/16 05:51:54;;;;;;;22.23;15.77;;;;;;;;;;5142015;27;20023;-74
2022/10/16 05:54:40;;;;;;;27.30;16.58;;;;;;;;;;5157005;27;20037;-74
2022/10/16 05:57:25;;;;;;;20.90;14.55;;;;;;;;;;5141494;27;20018;-74
2022/10/16 06:00:11;;;;;;;20.35;13.50;;;;;;;;;;5156814;27;20015;-73
2022/10/16 06:02:57;;;;;;;25.27;14.85;;;;;;;;;;5157037;27;20432;-74
2022/10/16 06:05:42;;;;;;;20.02;15.00;;;;;;;;;;5157207;27;20033;-74
2022/10/16 06:08:28;;;;;;;23.77;14.95;;;;;;;;;;5156705;27;20110;-74
2022/10/16 06:11:18;;;;;;;23.60;14.80;;;;;;;;;;5156802;27;20440;-75
2022/10/16 06:14:06;;;;;;;26.92;15.02;;;;;;;;;;5156658;27;20054;-74
2022/10/16 06:16:52;;;;;;;19.77;14.23;;;;;;;;;;5156037;27;20023;-75
2022/10/16 06:19:40;;;;;;;21.60;14.68;;;;;;;;;;5155720;27;20031;-74
2022/10/16 06:22:26;;;;;;;22.45;14.00;;;;;;;;;;5141260;27;20110;-74
2022/10/16 06:25:11;;;;;;;21.42;14.70;;;;;;;;;;5156617;27;20443;-73
2022/10/16 06:27:57;;;;;;;19.27;13.30;;;;;;;;;;5154895;27;20023;-74
2022/10/16 06:30:43;;;;;;;20.67;13.95;;;;;;;;;;5156518;27;20381;-75
2022/10/16 06:33:29;;;;;;;20.95;14.95;;;;;;;;;;5141381;27;20366;-75
2022/10/16 06:36:16;;;;;;;21.52;14.68;;;;;;;;;;5155605;27;20381;-74
2022/10/16 06:39:02;;;;;;;22.48;14.27;;;;;;;;;;5155141;27;20022;-75
2022/10/16 06:41:48;;;;;;;23.38;15.30;;;;;;;;;;5156354;27;20037;-73
2022/10/16 06:44:34;;;;;;;21.25;14.55;;;;;;;;;;5156795;27;20025;-75
2022/10/16 06:47:19;;;;;;;22.45;15.50;;;;;;;;;;5155555;27;20041;-75
2022/10/16 06:50:07;;;;;;;22.02;15.80;;;;;;;;;;5156003;27;20015;-74
2022/10/16 06:52:52;;;;;;;21.25;16.20;;;;;;;;;;5155641;27;20023;-74
2022/10/16 06:55:38;;;;;;;25.88;15.80;;;;;;;;;;5156113;27;20075;-74
2022/10/16 06:58:24;;;;;;;22.50;16.13;;;;;;;;;;5155887;27;20054;-75
2022/10/16 07:01:10;;;;;;;21.73;14.93;;;;;;;;;;5155400;27;20456;-77
2022/10/16 07:03:56;;;;;;;20.77;15.07;;;;;;;;;;5155820;27;20023;-75
2022/10/16 07:06:42;;;;;;;21.05;14.60;;;;;;;;;;5155450;27;20022;-75
2022/10/16 07:09:27;;;;;;;21.48;15.57;;;;;;;;;;5140073;27;20170;-75
2022/10/16 07:12:13;;;;;;;19.52;15.35;;;;;;;;;;5156415;27;20033;-75
2022/10/16 07:14:59;;;;;;;22.95;16.70;;;;;;;;;;5155763;27;20467;-75
2022/10/16 07:17:44;;;;;;;22.95;16.13;;;;;;;;;;5157026;27;20026;-74
2022/10/16 07:20:30;;;;;;;22.67;16.75;;;;;;;;;;5156039;27;20110;-75
2022/10/16 07:23:15;;;;;;;22.92;17.10;;;;;;;;;;5155442;27;20038;-75
2022/10/16 07:26:01;;;;;;;24.63;17.30;;;;;;;;;;5156003;27;20115;-74
2022/10/16 07:28:47;;;;;;;24.75;16.83;;;;;;;;;;5155160;27;20105;-75
2022/10/16 07:31:33;;;;;;;23.85;15.93;;;;;;;;;;5155116;27;20025;-75
2022/10/16 07:34:19;;;;;;;23.90;17.50;;;;;;;;;;5138818;27;20419;-75
2022/10/16 07:37:04;;;;;;;19.70;14.88;;;;;;;;;;5153769;27;20098;-76
2022/10/16 07:39:50;;;;;;;23.02;15.35;;;;;;;;;;5155370;27;20048;-75
2022/10/16 07:42:35;;;;;;;20.55;14.80;;;;;;;;;;5161078;27;20023;-73
2022/10/16 07:45:21;;;;;;;19.23;15.07;;;;;;;;;;5167383;27;20030;-73
2022/10/16 07:48:07;;;;;;;20.27;14.10;;;;;;;;;;5156914;27;20095;-73
2022/10/16 07:50:52;;;;;;;21.13;15.15;;;;;;;;;;5154735;27;20022;-74
2022/10/16 07:53:38;;;;;;;18.83;13.52;;;;;;;;;;5155472;27;20019;-74
2022/10/16 07:56:24;;;;;;;20.15;13.65;;;;;;;;;;5155387;27;20015;-75
2022/10/16 07:59:09;;;;;;;18.25;13.68;;;;;;;;;;5154414;27;20026;-75
2022/10/16 08:01:55;;;;;;;17.48;12.75;;;;;;;;;;5154958;27;20019;-74
2022/10/16 08:04:40;;;;;;;18.52;12.80;;;;;;;;;;5155413;27;20171;-75
2022/10/16 08:07:26;;;;;;;21.17;14.07;;;;;;;;;;5154647;27;20029;-74
2022/10/16 08:10:15;;;;;;;19.02;14.10;;;;;;;;;;5155748;27;20386;-75
2022/10/16 08:13:01;;;;;;;18.95;14.32;;;;;;;;;;5154820;27;20144;-75
2022/10/16 08:15:46;;;;;;;23.83;12.70;;;;;;;;;;5158433;27;20015;-73
2022/10/16 08:18:32;;;;;;;16.08;10.98;;;;;;;;;;5166464;27;20027;-75
2022/10/16 08:21:19;;;;;;;13.57;9.55;;;;;;;;;;5155898;27;20018;-76
2022/10/16 08:24:04;;;;;;;13.82;9.48;;;;;;;;;;5154758;27;20029;-75
2022/10/16 08:26:50;;;;;;;11.80;8.02;;;;;;;;;;5154860;27;20363;-75
2022/10/16 08:29:35;;;;;;;13.73;8.25;;;;;;;;;;5154659;27;20022;-75
2022/10/16 08:32:21;;;;;;;16.85;8.50;;;;;;;;;;5139849;27;20018;-73
2022/10/16 08:35:07;;;;;;;12.60;7.95;;;;;;;;;;5139999;27;20114;-75
2022/10/16 08:37:52;;;;;;;13.65;8.40;;;;;;;;;;5153465;27;20059;-75
2022/10/16 08:40:38;;;;;;;13.90;7.95;;;;;;;;;;5154211;27;20015;-75
2022/10/16 08:43:43;;;;;;;16.27;9.05;;;;;;;;;;5154365;27;20023;-75
2022/10/16 08:46:37;;;;;;;13.15;9.20;;;;;;;;;;5154840;27;20090;-73
2022/10/16 08:49:24;;;;;;;16.10;9.45;;;;;;;;;;5143794;27;20031;-75
2022/10/16 08:52:12;;;;;;;15.27;9.35;;;;;;;;;;5158380;27;20041;-75
2022/10/16 08:54:57;;;;;;;13.82;9.45;;;;;;;;;;5157891;27;20105;-74
2022/10/16 08:57:43;;;;;;;15.50;9.40;;;;;;;;;;5158154;27;20110;-75
2022/10/16 09:00:29;;;;;;;13.50;9.65;;;;;;;;;;5159964;27;20019;-76
2022/10/16 09:03:24;;;;;;;12.38;9.10;;;;;;;;;;5158101;27;20023;-75
2022/10/16 09:06:15;;;;;;;14.30;9.32;;;;;;;;;;5142794;27;20033;-76
2022/10/16 09:09:01;;;;;;;14.63;10.05;;;;;;;;;;5157625;27;20029;-76
2022/10/16 09:11:46;;;;;;;16.60;10.10;;;;;;;;;;5143718;27;20057;-74
2022/10/16 09:14:36;;;;;;;15.55;9.65;;;;;;;;;;5157672;27;20019;-74
2022/10/16 09:17:45;;;;;;;17.92;10.05;;;;;;;;;;5142067;27;20022;-76
2022/10/16 09:20:51;;;;;;;14.85;9.52;;;;;;;;;;5156621;27;20448;-74
2022/10/16 09:23:37;;;;;;;13.77;10.00;;;;;;;;;;5157629;27;20210;-74
2022/10/16 09:26:23;;;;;;;16.77;9.50;;;;;;;;;;5142638;27;20053;-76
2022/10/16 09:29:11;;;;;;;15.02;10.27;;;;;;;;;;5157031;27;20022;-75
2022/10/16 09:32:06;;;;;;;11.80;9.30;;;;;;;;;;5157769;27;20026;-74
2022/10/16 09:34:53;;;;;;;12.45;9.25;;;;;;;;;;5142913;27;20332;-76
2022/10/16 09:37:40;;;;;;;14.57;8.70;;;;;;;;;;5140827;27;20376;-75
2022/10/16 09:40:30;;;;;;;11.90;8.80;;;;;;;;;;5142592;27;20014;-74
2022/10/16 09:43:16;;;;;;;18.13;8.88;;;;;;;;;;5157154;27;20018;-75
2022/10/16 09:46:06;;;;;;;17.55;8.27;;;;;;;;;;5156911;27;20029;-75
2022/10/16 09:48:53;;;;;;;15.52;8.85;;;;;;;;;;5158002;27;20031;-76
2022/10/16 09:51:39;;;;;;;13.48;8.75;;;;;;;;;;5142656;27;20015;-75
2022/10/16 09:54:24;;;;;;;15.20;8.70;;;;;;;;;;5142308;27;20011;-76
2022/10/16 09:57:12;;;;;;;13.48;8.38;;;;;;;;;;5156348;27;20030;-76
2022/10/16 09:59:58;;;;;;;14.80;8.55;;;;;;;;;;5157048;27;20057;-76
2022/10/16 10:02:44;;;;;;;12.75;8.25;;;;;;;;;;5141985;27;20073;-75
2022/10/16 10:05:29;;;;;;;10.30;8.05;;;;;;;;;;5142364;27;20023;-74
2022/10/16 10:08:17;;;;;;;10.75;7.85;;;;;;;;;;5141778;27;20026;-75
2022/10/16 10:11:04;;;;;;;11.30;7.55;;;;;;;;;;5142152;27;20404;-75
2022/10/16 10:13:50;;;;;;;10.77;7.75;;;;;;;;;;5157331;27;20019;-75
2022/10/16 10:16:35;;;;;;;22.55;11.95;;;;;;;;;;5141682;27;20042;-76
2022/10/16 10:19:22;;;;;;;28.13;16.83;;;;;;;;;;5155399;27;20023;-76
2022/10/16 10:22:28;;;;;;;12.05;8.50;;;;;;;;;;5156211;27;20076;-75
2022/10/16 10:25:22;;;;;;;13.40;9.20;;;;;;;;;;5143248;27;20026;-76
2022/10/16 10:28:13;;;;;;;13.55;8.82;;;;;;;;;;5156647;27;20083;-75
2022/10/16 10:31:05;;;;;;;12.93;9.10;;;;;;;;;;5141672;27;20397;-77
2022/10/16 10:34:09;;;;;;;15.68;9.10;;;;;;;;;;5141807;27;20487;-76
2022/10/16 10:37:01;;;;;;;10.70;8.95;;;;;;;;;;5141587;27;20045;-75
2022/10/16 10:40:02;;;;;;;13.23;9.90;;;;;;;;;;5155733;27;20022;-76
2022/10/16 10:42:51;;;;;;;18.42;10.98;;;;;;;;;;5156104;27;20115;-76
2022/10/16 10:45:44;;;;;;;18.15;11.35;;;;;;;;;;5140928;27;20110;-75
2022/10/16 10:48:39;;;;;;;16.30;11.00;;;;;;;;;;5156682;27;20049;-77
2022/10/16 10:51:43;;;;;;;14.05;10.43;;;;;;;;;;5158509;27;20064;-77
2022/10/16 10:54:35;;;;;;;12.45;9.63;;;;;;;;;;5156454;27;20014;-76
2022/10/16 10:57:33;;;;;;;15.98;9.95;;;;;;;;;;5155133;27;20041;-76
2022/10/16 11:00:28;;;;;;;14.55;9.93;;;;;;;;;;5155629;27;20015;-75
2022/10/16 11:03:13;;;;;;;15.93;9.95;;;;;;;;;;5155258;27;20082;-76
2022/10/16 11:06:08;;;;;;;20.58;9.88;;;;;;;;;;5155283;27;20042;-77
2022/10/16 11:08:58;;;;;;;12.15;8.55;;;;;;;;;;5140216;27;20050;-76
2022/10/16 11:11:46;;;;;;;10.20;8.38;;;;;;;;;;5141171;27;20432;-76
2022/10/16 11:14:40;;;;;;;11.73;8.00;;;;;;;;;;5141625;27;20166;-77
2022/10/16 11:17:31;;;;;;;10.63;7.95;;;;;;;;;;5140897;27;20444;-78
2022/10/16 11:20:26;;;;;;;9.57;7.40;;;;;;;;;;5155001;27;20440;-78
2022/10/16 11:23:18;;;;;;;10.93;8.40;;;;;;;;;;5155485;27;20023;-77
2022/10/16 11:26:08;;;;;;;9.38;6.90;;;;;;;;;;5155493;27;20448;-77
2022/10/16 11:28:55;;;;;;;8.57;5.80;;;;;;;;;;5155859;27;20042;-77
2022/10/16 11:31:49;;;;;;;8.38;6.30;;;;;;;;;;5155647;27;20014;-77
2022/10/16 11:34:47;;;;;;;16.83;8.38;;;;;;;;;;5155457;27;20043;-76
2022/10/16 11:37:36;;;;;;;13.95;8.43;;;;;;;;;;5168728;27;20042;-76
2022/10/16 11:40:25;;;;;;;9.80;7.38;;;;;;;;;;5158093;27;20414;-77
2022/10/16 11:43:14;;;;;;;8.43;6.63;;;;;;;;;;5128261;27;20095;-76
2022/10/16 11:46:20;;;;;;;12.25;8.55;;;;;;;;;;5141307;27;20025;-76
2022/10/16 11:49:12;;;;;;;13.13;7.93;;;;;;;;;;5155535;27;20152;-74
2022/10/16 11:52:11;;;;;;;10.75;7.60;;;;;;;;;;5155034;27;20026;-75
2022/10/16 11:55:14;;;;;;;12.15;7.90;;;;;;;;;;5154786;27;20396;-76
2022/10/16 11:58:20;;;;;;;10.07;7.72;;;;;;;;;;5154346;27;20109;-75
2022/10/16 12:01:05;;;;;;;11.10;8.68;;;;;;;;;;5125808;27;20042;-76
2022/10/16 12:04:14;;;;;;;12.15;8.68;;;;;;;;;;5155349;27;20015;-77
2022/10/16 12:07:08;;;;;;;13.35;9.52;;;;;;;;;;5139518;27;20015;-77
2022/10/16 12:09:56;;;;;;;12.75;9.02;;;;;;;;;;5154571;27;20099;-76
2022/10/16 12:12:41;;;;;;;13.40;9.63;;;;;;;;;;5155269;27;20014;-76
2022/10/16 12:15:29;;;;;;;14.05;9.40;;;;;;;;;;5139705;27;20393;-76
2022/10/16 12:18:24;;;;;;;13.60;9.95;;;;;;;;;;5154646;27;20364;-75
2022/10/16 12:21:10;;;;;;;15.77;10.18;;;;;;;;;;5156725;27;20089;-75
2022/10/16 12:23:58;;;;;;;13.38;9.70;;;;;;;;;;5162002;27;20054;-74
2022/10/16 12:26:44;;;;;;;17.77;10.63;;;;;;;;;;5159464;27;20416;-75
2022/10/16 12:29:30;;;;;;;16.33;10.43;;;;;;;;;;5143866;27;20058;-76
2022/10/16 12:32:28;;;;;;;17.05;9.93;;;;;;;;;;5142956;27;20448;-74
2022/10/16 12:35:25;;;;;;;16.90;10.02;;;;;;;;;;5143971;27;20054;-76
2022/10/16 12:38:19;;;;;;;17.15;10.00;;;;;;;;;;5157637;27;20078;-75
2022/10/16 12:41:10;;;;;;;12.80;10.20;;;;;;;;;;5142261;27;20440;-75
2022/10/16 12:43:56;;;;;;;16.42;10.05;;;;;;;;;;5143262;27;20011;-75
2022/10/16 12:46:42;;;;;;;14.00;10.35;;;;;;;;;;5142933;27;20030;-75
2022/10/16 12:49:27;;;;;;;18.40;11.68;;;;;;;;;;5158528;27;20109;-74
2022/10/16 12:52:25;;;;;;;16.40;10.48;;;;;;;;;;5158357;27;20397;-76
2022/10/16 12:55:17;;;;;;;21.02;10.35;;;;;;;;;;5158076;27;20412;-75
2022/10/16 12:58:03;;;;;;;21.67;11.10;;;;;;;;;;5142329;27;20031;-76
2022/10/16 13:01:03;;;;;;;16.15;10.50;;;;;;;;;;5158417;27;20352;-76
2022/10/16 13:03:59;;;;;;;17.75;10.45;;;;;;;;;;5142234;27;20046;-75
2022/10/16 13:07:05;;;;;;;16.35;10.02;;;;;;;;;;5157715;27;20432;-76
2022/10/16 13:10:02;;;;;;;21.98;11.13;;;;;;;;;;5128122;27;20050;-75
2022/10/16 13:13:06;;;;;;;14.68;9.90;;;;;;;;;;5142297;27;20029;-76
2022/10/16 13:15:52;;;;;;;16.45;10.10;;;;;;;;;;5157131;27;20018;-76
2022/10/16 13:18:48;;;;;;;15.57;10.07;;;;;;;;;;5157987;27;20014;-76
2022/10/16 13:21:33;;;;;;;14.68;9.30;;;;;;;;;;5157459;27;20313;-76
2022/10/16 13:24:34;;;;;;;13.40;9.48;;;;;;;;;;5157192;27;20037;-76
2022/10/16 13:27:28;;;;;;;18.70;9.60;;;;;;;;;;5157049;27;20026;-76
2022/10/16 13:30:21;;;;;;;17.45;9.68;;;;;;;;;;5143191;27;20007;-75
2022/10/16 13:33:12;;;;;;;13.00;8.95;;;;;;;;;;5156806;27;20086;-76
2022/10/16 13:35:58;;;;;;;14.15;9.23;;;;;;;;;;5157066;27;20011;-76
2022/10/16 13:38:43;;;;;;;13.88;9.45;;;;;;;;;;5158296;27;20027;-77
2022/10/16 13:41:29;;;;;;;13.80;8.93;;;;;;;;;;5142874;27;20122;-77
2022/10/16 13:44:18;;;;;;;10.63;8.43;;;;;;;;;;5156812;27;20431;-75
2022/10/16 13:47:03;;;;;;;14.70;8.70;;;;;;;;;;5156755;27;20050;-75
2022/10/16 13:50:06;;;;;;;13.05;8.75;;;;;;;;;;5157343;27;20031;-76
2022/10/16 13:53:02;;;;;;;11.35;8.60;;;;;;;;;;5142692;27;20015;-76
2022/10/16 13:55:48;;;;;;;12.40;8.35;;;;;;;;;;5157380;27;20030;-76
2022/10/16 13:58:33;;;;;;;13.55;8.48;;;;;;;;;;5157564;27;20034;-77
2022/10/16 14:01:23;;;;;;;13.55;8.57;;;;;;;;;;5141403;27;20018;-76
2022/10/16 14:04:09;;;;;;;16.52;8.95;;;;;;;;;;5142349;27;20409;-77
2022/10/16 14:06:55;;;;;;;14.63;9.02;;;;;;;;;;5142072;27;20022;-76
2022/10/16 14:09:41;;;;;;;15.50;7.88;;;;;;;;;;5156635;27;20032;-76
2022/10/16 14:12:26;;;;;;;12.20;7.57;;;;;;;;;;5155514;27;20023;-77
2022/10/16 14:15:16;;;;;;;13.07;8.00;;;;;;;;;;5157075;27;20463;-77
2022/10/16 14:18:02;;;;;;;15.50;8.60;;;;;;;;;;5156451;27;20023;-79
2022/10/16 14:20:49;;;;;;;9.88;7.60;;;;;;;;;;5143380;27;20079;-78
2022/10/16 14:23:38;;;;;;;13.00;7.80;;;;;;;;;;5158066;27;20121;-77
2022/10/16 14:26:25;;;;;;;11.43;6.90;;;;;;;;;;5157134;27;20113;-78
2022/10/16 14:29:17;;;;;;;10.98;7.78;;;;;;;;;;5157285;27;20019;-77
2022/10/16 14:32:04;;;;;;;14.23;7.30;;;;;;;;;;5142667;27;20034;-77
2022/10/16 14:34:53;;;;;;;13.07;7.60;;;;;;;;;;5158110;27;20359;-77
2022/10/16 14:37:39;;;;;;;12.10;7.00;;;;;;;;;;5143048;27;20491;-77
2022/10/16 14:40:32;;;;;;;12.40;7.20;;;;;;;;;;5156993;27;20023;-77
2022/10/16 14:43:22;;;;;;;12.98;6.90;;;;;;;;;;5157182;27;20443;-78
2022/10/16 14:46:11;;;;;;;11.20;6.85;;;;;;;;;;5156572;27;20106;-77
2022/10/16 14:49:15;;;;;;;12.68;6.60;;;;;;;;;;5158671;27;20140;-78
2022/10/16 14:52:01;;;;;;;9.93;6.13;;;;;;;;;;5178462;27;20013;-75
2022/10/16 14:54:50;;;;;;;12.35;7.43;;;;;;;;;;5144360;27;20018;-75
2022/10/16 14:57:37;;;;;;;14.55;6.45;;;;;;;;;;5156338;27;20031;-75
2022/10/16 15:00:24;;;;;;;11.50;6.22;;;;;;;;;;5141525;27;20031;-75
2022/10/16 15:03:09;;;;;;;13.10;6.90;;;;;;;;;;5155571;27;20026;-76
2022/10/16 15:05:55;;;;;;;12.25;6.57;;;;;;;;;;5141104;27;20050;-76
2022/10/16 15:08:43;;;;;;;10.68;6.05;;;;;;;;;;5155996;27;20045;-77
2022/10/16 15:11:31;;;;;;;12.32;6.03;;;;;;;;;;5168720;27;20013;-75
2022/10/16 15:14:19;;;;;;;14.45;6.90;;;;;;;;;;5163206;27;20047;-77
2022/10/16 15:17:05;;;;;;;11.60;6.45;;;;;;;;;;5141164;27;20360;-75
2022/10/16 15:19:51;;;;;;;12.75;6.82;;;;;;;;;;5155875;27;20034;-76
2022/10/16 15:22:36;;;;;;;14.02;6.97;;;;;;;;;;5155505;27;20019;-77
2022/10/16 15:25:32;;;;;;;11.55;6.90;;;;;;;;;;5155560;27;20344;-76
2022/10/16 15:28:18;;;;;;;11.60;6.85;;;;;;;;;;5155550;27;20459;-74
2022/10/16 15:31:04;;;;;;;15.02;7.00;;;;;;;;;;5155502;27;20025;-76
2022/10/16 15:33:53;;;;;;;13.05;7.43;;;;;;;;;;5154926;27;20023;-77
2022/10/16 15:36:39;;;;;;;15.68;8.02;;;;;;;;;;5154305;27;20054;-74
2022/10/16 15:39:25;;;;;;;16.38;8.10;;;;;;;;;;5155707;27;20042;-74
2022/10/16 15:42:10;;;;;;;16.60;8.35;;;;;;;;;;5154574;27;20023;-75
2022/10/16 15:44:56;;;;;;;19.80;8.23;;;;;;;;;;5155106;27;20026;-75
2022/10/16 15:47:42;;;;;;;15.45;7.45;;;;;;;;;;5154552;27;20030;-75
2022/10/16 15:50:27;;;;;;;13.95;8.50;;;;;;;;;;5140151;27;20421;-74
2022/10/16 15:53:13;;;;;;;16.48;8.77;;;;;;;;;;5155585;27;20094;-75
2022/10/16 15:56:01;;;;;;;20.00;9.05;;;;;;;;;;5141141;27;20027;-75
2022/10/16 15:58:46;;;;;;;14.15;8.98;;;;;;;;;;5144731;27;20509;-75
2022/10/16 16:01:33;;;;;;;17.17;9.45;;;;;;;;;;5159077;27;20486;-75
2022/10/16 16:04:18;;;;;;;20.48;10.02;;;;;;;;;;5159545;27;20022;-75
2022/10/16 16:07:07;;;;;;;20.77;10.65;;;;;;;;;;5159113;27;20458;-75
2022/10/16 16:09:52;;;;;;;23.73;11.50;;;;;;;;;;5159887;27;20349;-75
2022/10/16 16:12:38;;;;;;;22.27;11.57;;;;;;;;;;5144145;27;20391;-75
2022/10/16 16:15:24;;;;;;;25.98;12.10;;;;;;;;;;5144003;27;20023;-75
2022/10/16 16:18:09;;;;;;;21.30;12.90;;;;;;;;;;5158492;27;20031;-76
2022/10/16 16:20:55;;;;;;;25.05;13.80;;;;;;;;;;5159143;27;20011;-75
2022/10/16 16:23:41;;;;;;;29.85;14.40;;;;;;;;;;5158536;27;20019;-75
2022/10/16 16:26:30;;;;;;;25.83;15.88;;;;;;;;;;5158713;27;20046;-75